sensor_id;sensor_type;location;lat;lon;timestamp;P1;durP1;ratioP1;P2;durP2;ratioP2
1054;SDS011;516;51.482;7.120;2023-02-28T00:04:43;16.17;;;14.60;;
1054;SDS011;516;51.482;7.120;2023-02-28T00:10:31;15.73;;;13.60;;
1054;SDS011;516;51.482;7.120;2023-02-28T00:16:20;14.57;;;12.73;;
1054;SDS011;516;51.482;7.120;2023-02-28T00:22:09;12.67;;;11.73;;
1054;SDS011;516;51.482;7.120;2023-02-28T00:27:57;12.83;;;11.87;;
1054;SDS011;516;51.482;7.120;2023-02-28T00:33:44;20.93;;;17.80;;
1054;SDS011;516;51.482;7.120;2023-02-28T00:39:36;24.30;;;18.13;;
1054;SDS011;516;51.482;7.120;2023-02-28T00:45:24;18.07;;;16.30;;
1054;SDS011;516;51.482;7.120;2023-02-28T00:51:12;13.67;;;12.33;;
1054;SDS011;516;51.482;7.120;2023-02-28T00:57:00;14.67;;;13.40;;
1054;SDS011;516;51.482;7.120;2023-02-28T01:12:38;12.70;;;11.50;;
1054;SDS011;516;51.482;7.120;2023-02-28T01:18:26;12.17;;;11.07;;
1054;SDS011;516;51.482;7.120;2023-02-28T01:24:13;12.60;;;11.80;;
1054;SDS011;516;51.482;7.120;2023-02-28T01:30:02;11.73;;;10.60;;
1054;SDS011;516;51.482;7.120;2023-02-28T01:35:56;16.43;;;10.80;;
1054;SDS011;516;51.482;7.120;2023-02-28T01:42:23;11.97;;;10.87;;
1054;SDS011;516;51.482;7.120;2023-02-28T01:48:10;12.20;;;10.40;;
1054;SDS011;516;51.482;7.120;2023-02-28T01:54:01;11.80;;;10.77;;
1054;SDS011;516;51.482;7.120;2023-02-28T01:59:53;12.77;;;11.30;;
1054;SDS011;516;51.482;7.120;2023-02-28T02:09:06;15.13;;;11.80;;
1054;SDS011;516;51.482;7.120;2023-02-28T02:14:57;14.30;;;13.00;;
1054;SDS011;516;51.482;7.120;2023-02-28T02:33:28;12.20;;;10.97;;
1054;SDS011;516;51.482;7.120;2023-02-28T02:45:51;11.77;;;10.50;;
1054;SDS011;516;51.482;7.120;2023-02-28T02:52:06;10.60;;;9.80;;
1054;SDS011;516;51.482;7.120;2023-02-28T02:57:59;11.60;;;10.60;;
1054;SDS011;516;51.482;7.120;2023-02-28T03:03:51;19.13;;;10.70;;
1054;SDS011;516;51.482;7.120;2023-02-28T03:09:38;9.13;;;8.43;;
1054;SDS011;516;51.482;7.120;2023-02-28T03:15:32;11.60;;;10.60;;
1054;SDS011;516;51.482;7.120;2023-02-28T03:34:58;9.30;;;8.37;;
1054;SDS011;516;51.482;7.120;2023-02-28T03:41:30;9.70;;;8.80;;
1054;SDS011;516;51.482;7.120;2023-02-28T03:47:27;9.97;;;9.13;;
1054;SDS011;516;51.482;7.120;2023-02-28T03:59:26;9.50;;;8.90;;
1054;SDS011;516;51.482;7.120;2023-02-28T04:05:16;9.93;;;9.03;;
1054;SDS011;516;51.482;7.120;2023-02-28T04:11:03;10.50;;;9.70;;
1054;SDS011;516;51.482;7.120;2023-02-28T04:16:55;11.40;;;10.50;;
1054;SDS011;516;51.482;7.120;2023-02-28T04:22:42;10.17;;;9.37;;
1054;SDS011;516;51.482;7.120;2023-02-28T04:28:30;10.00;;;9.20;;
1054;SDS011;516;51.482;7.120;2023-02-28T04:34:18;10.00;;;9.20;;
1054;SDS011;516;51.482;7.120;2023-02-28T04:40:06;10.20;;;9.40;;
1054;SDS011;516;51.482;7.120;2023-02-28T04:45:55;10.53;;;9.53;;
1054;SDS011;516;51.482;7.120;2023-02-28T04:51:44;10.87;;;9.87;;
1054;SDS011;516;51.482;7.120;2023-02-28T04:57:31;11.60;;;10.50;;
1054;SDS011;516;51.482;7.120;2023-02-28T05:03:20;10.87;;;9.97;;
1054;SDS011;516;51.482;7.120;2023-02-28T05:18:59;10.67;;;9.83;;
1054;SDS011;516;51.482;7.120;2023-02-28T05:24:46;10.20;;;9.30;;
1054;SDS011;516;51.482;7.120;2023-02-28T05:30:34;10.73;;;9.77;;
1054;SDS011;516;51.482;7.120;2023-02-28T05:36:22;12.23;;;11.03;;
1054;SDS011;516;51.482;7.120;2023-02-28T05:42:10;10.97;;;10.07;;
1054;SDS011;516;51.482;7.120;2023-02-28T05:47:58;10.77;;;9.90;;
1054;SDS011;516;51.482;7.120;2023-02-28T05:53:45;11.90;;;11.00;;
1054;SDS011;516;51.482;7.120;2023-02-28T05:59:35;11.00;;;10.13;;
1054;SDS011;516;51.482;7.120;2023-02-28T06:05:26;11.70;;;10.90;;
1054;SDS011;516;51.482;7.120;2023-02-28T06:11:03;11.53;;;10.60;;
1054;SDS011;516;51.482;7.120;2023-02-28T06:16:51;12.00;;;11.00;;
1054;SDS011;516;51.482;7.120;2023-02-28T06:22:39;11.47;;;10.70;;
1054;SDS011;516;51.482;7.120;2023-02-28T06:28:27;11.60;;;10.60;;
1054;SDS011;516;51.482;7.120;2023-02-28T06:34:15;11.30;;;10.50;;
1054;SDS011;516;51.482;7.120;2023-02-28T06:40:04;11.20;;;10.30;;
1054;SDS011;516;51.482;7.120;2023-02-28T06:45:54;11.93;;;11.03;;
1054;SDS011;516;51.482;7.120;2023-02-28T06:51:44;11.90;;;11.00;;
1054;SDS011;516;51.482;7.120;2023-02-28T06:57:32;13.23;;;12.03;;
1054;SDS011;516;51.482;7.120;2023-02-28T07:03:21;12.83;;;11.73;;
1054;SDS011;516;51.482;7.120;2023-02-28T07:18:57;12.63;;;11.20;;
1054;SDS011;516;51.482;7.120;2023-02-28T07:24:45;12.50;;;11.40;;
1054;SDS011;516;51.482;7.120;2023-02-28T07:30:32;15.03;;;13.80;;
1054;SDS011;516;51.482;7.120;2023-02-28T07:36:20;16.00;;;14.77;;
1054;SDS011;516;51.482;7.120;2023-02-28T07:42:08;17.67;;;16.47;;
1054;SDS011;516;51.482;7.120;2023-02-28T07:47:58;17.03;;;15.50;;
1054;SDS011;516;51.482;7.120;2023-02-28T07:53:46;17.90;;;16.90;;
1054;SDS011;516;51.482;7.120;2023-02-28T07:59:33;18.40;;;17.13;;
1054;SDS011;516;51.482;7.120;2023-02-28T08:05:21;17.40;;;16.30;;
1054;SDS011;516;51.482;7.120;2023-02-28T08:11:04;19.60;;;18.33;;
1054;SDS011;516;51.482;7.120;2023-02-28T08:16:52;19.50;;;18.00;;
1054;SDS011;516;51.482;7.120;2023-02-28T08:22:40;17.97;;;16.67;;
1054;SDS011;516;51.482;7.120;2023-02-28T08:28:28;18.00;;;16.63;;
1054;SDS011;516;51.482;7.120;2023-02-28T08:34:16;17.60;;;16.60;;
1054;SDS011;516;51.482;7.120;2023-02-28T08:40:04;16.27;;;15.37;;
1054;SDS011;516;51.482;7.120;2023-02-28T08:45:53;16.50;;;15.70;;
1054;SDS011;516;51.482;7.120;2023-02-28T08:51:43;16.37;;;15.50;;
1054;SDS011;516;51.482;7.120;2023-02-28T08:57:31;19.70;;;18.20;;
1054;SDS011;516;51.482;7.120;2023-02-28T09:03:20;16.30;;;15.37;;
1054;SDS011;516;51.482;7.120;2023-02-28T09:18:58;16.07;;;15.27;;
1054;SDS011;516;51.482;7.120;2023-02-28T09:24:46;16.10;;;15.33;;
1054;SDS011;516;51.482;7.120;2023-02-28T09:30:33;15.90;;;15.00;;
1054;SDS011;516;51.482;7.120;2023-02-28T09:36:22;16.40;;;15.50;;
1054;SDS011;516;51.482;7.120;2023-02-28T09:42:14;16.73;;;15.73;;
1054;SDS011;516;51.482;7.120;2023-02-28T09:48:37;16.57;;;15.60;;
1054;SDS011;516;51.482;7.120;2023-02-28T09:54:31;16.03;;;15.13;;
1054;SDS011;516;51.482;7.120;2023-02-28T10:06:16;14.80;;;14.20;;
1054;SDS011;516;51.482;7.120;2023-02-28T10:15:29;15.93;;;15.13;;
1054;SDS011;516;51.482;7.120;2023-02-28T10:21:00;14.70;;;14.00;;
1054;SDS011;516;51.482;7.120;2023-02-28T10:26:48;13.57;;;12.97;;
1054;SDS011;516;51.482;7.120;2023-02-28T10:32:39;15.97;;;15.17;;
1054;SDS011;516;51.482;7.120;2023-02-28T10:38:34;16.23;;;15.00;;
1054;SDS011;516;51.482;7.120;2023-02-28T10:44:26;15.20;;;14.50;;
1054;SDS011;516;51.482;7.120;2023-02-28T10:56:29;15.03;;;14.43;;
1054;SDS011;516;51.482;7.120;2023-02-28T11:02:31;14.13;;;13.53;;
1054;SDS011;516;51.482;7.120;2023-02-28T11:08:24;13.97;;;13.20;;
1054;SDS011;516;51.482;7.120;2023-02-28T11:10:55;14.07;;;13.37;;
1054;SDS011;516;51.482;7.120;2023-02-28T11:13:27;14.30;;;13.60;;
1054;SDS011;516;51.482;7.120;2023-02-28T11:19:43;14.23;;;13.63;;
1054;SDS011;516;51.482;7.120;2023-02-28T11:29:02;15.70;;;14.90;;
1054;SDS011;516;51.482;7.120;2023-02-28T11:35:31;14.37;;;13.70;;
1054;SDS011;516;51.482;7.120;2023-02-28T11:47:18;14.23;;;13.53;;
1054;SDS011;516;51.482;7.120;2023-02-28T11:53:14;15.67;;;14.87;;
1054;SDS011;516;51.482;7.120;2023-02-28T11:59:42;14.67;;;13.97;;
1054;SDS011;516;51.482;7.120;2023-02-28T12:06:28;16.00;;;14.53;;
1054;SDS011;516;51.482;7.120;2023-02-28T12:16:29;15.57;;;14.77;;
1054;SDS011;516;51.482;7.120;2023-02-28T12:29:28;15.33;;;14.47;;
1054;SDS011;516;51.482;7.120;2023-02-28T12:35:58;15.10;;;14.40;;
1054;SDS011;516;51.482;7.120;2023-02-28T12:41:54;15.00;;;14.20;;
1054;SDS011;516;51.482;7.120;2023-02-28T12:48:07;14.20;;;13.60;;
1054;SDS011;516;51.482;7.120;2023-02-28T13:00:00;15.63;;;14.50;;
1054;SDS011;516;51.482;7.120;2023-02-28T13:16:04;16.10;;;15.30;;
1054;SDS011;516;51.482;7.120;2023-02-28T13:21:55;15.30;;;14.50;;
1054;SDS011;516;51.482;7.120;2023-02-28T13:27:44;15.83;;;15.03;;
1054;SDS011;516;51.482;7.120;2023-02-28T13:33:35;16.90;;;16.10;;
1054;SDS011;516;51.482;7.120;2023-02-28T13:39:56;16.70;;;15.80;;
1054;SDS011;516;51.482;7.120;2023-02-28T13:46:06;18.57;;;17.47;;
1054;SDS011;516;51.482;7.120;2023-02-28T13:52:17;15.43;;;14.60;;
1054;SDS011;516;51.482;7.120;2023-02-28T14:16:46;16.37;;;15.63;;
1054;SDS011;516;51.482;7.120;2023-02-28T14:41:51;18.03;;;17.23;;
1054;SDS011;516;51.482;7.120;2023-02-28T14:47:39;17.10;;;16.10;;
1054;SDS011;516;51.482;7.120;2023-02-28T14:53:30;18.00;;;17.10;;
1054;SDS011;516;51.482;7.120;2023-02-28T14:59:30;17.43;;;16.63;;
1054;SDS011;516;51.482;7.120;2023-02-28T15:21:20;16.03;;;15.20;;
1054;SDS011;516;51.482;7.120;2023-02-28T15:27:38;17.00;;;16.20;;
1054;SDS011;516;51.482;7.120;2023-02-28T15:33:57;16.80;;;15.90;;
1054;SDS011;516;51.482;7.120;2023-02-28T15:40:13;17.67;;;16.67;;
1054;SDS011;516;51.482;7.120;2023-02-28T15:46:01;16.70;;;15.80;;
1054;SDS011;516;51.482;7.120;2023-02-28T15:51:55;17.50;;;16.50;;
1054;SDS011;516;51.482;7.120;2023-02-28T15:57:45;16.20;;;15.40;;
1054;SDS011;516;51.482;7.120;2023-02-28T16:03:40;17.37;;;16.43;;
1054;SDS011;516;51.482;7.120;2023-02-28T16:10:11;17.20;;;16.20;;
1054;SDS011;516;51.482;7.120;2023-02-28T16:16:00;17.30;;;16.20;;
1054;SDS011;516;51.482;7.120;2023-02-28T16:25:03;18.80;;;17.67;;
1054;SDS011;516;51.482;7.120;2023-02-28T16:30:54;18.53;;;17.53;;
1054;SDS011;516;51.482;7.120;2023-02-28T16:36:41;18.47;;;17.47;;
1054;SDS011;516;51.482;7.120;2023-02-28T16:42:28;17.30;;;16.10;;
1054;SDS011;516;51.482;7.120;2023-02-28T16:48:18;19.43;;;18.23;;
1054;SDS011;516;51.482;7.120;2023-02-28T16:54:06;17.47;;;16.47;;
1054;SDS011;516;51.482;7.120;2023-02-28T16:59:54;18.63;;;17.53;;
1054;SDS011;516;51.482;7.120;2023-02-28T17:05:42;17.90;;;16.90;;
1054;SDS011;516;51.482;7.120;2023-02-28T17:11:29;18.23;;;17.27;;
1054;SDS011;516;51.482;7.120;2023-02-28T17:17:13;18.53;;;17.50;;
1054;SDS011;516;51.482;7.120;2023-02-28T17:23:04;17.30;;;16.30;;
1054;SDS011;516;51.482;7.120;2023-02-28T17:28:54;15.87;;;14.83;;
1054;SDS011;516;51.482;7.120;2023-02-28T17:34:43;19.63;;;18.40;;
1054;SDS011;516;51.482;7.120;2023-02-28T17:40:31;18.90;;;17.80;;
1054;SDS011;516;51.482;7.120;2023-02-28T17:46:22;18.20;;;16.60;;
1054;SDS011;516;51.482;7.120;2023-02-28T17:52:11;18.83;;;17.57;;
1054;SDS011;516;51.482;7.120;2023-02-28T17:57:59;18.50;;;17.30;;
1054;SDS011;516;51.482;7.120;2023-02-28T18:03:47;19.40;;;18.30;;
1054;SDS011;516;51.482;7.120;2023-02-28T18:09:35;20.93;;;19.27;;
1054;SDS011;516;51.482;7.120;2023-02-28T18:25:39;20.27;;;18.90;;
1054;SDS011;516;51.482;7.120;2023-02-28T18:31:27;20.20;;;18.90;;
1054;SDS011;516;51.482;7.120;2023-02-28T18:37:14;19.80;;;18.57;;
1054;SDS011;516;51.482;7.120;2023-02-28T18:43:04;21.27;;;19.90;;
1054;SDS011;516;51.482;7.120;2023-02-28T18:48:51;24.20;;;22.10;;
1054;SDS011;516;51.482;7.120;2023-02-28T18:54:38;22.63;;;20.63;;
1054;SDS011;516;51.482;7.120;2023-02-28T19:00:25;23.10;;;20.90;;
1054;SDS011;516;51.482;7.120;2023-02-28T19:06:13;22.50;;;20.90;;
1054;SDS011;516;51.482;7.120;2023-02-28T19:12:01;24.43;;;22.53;;
1054;SDS011;516;51.482;7.120;2023-02-28T19:14:44;25.10;;;22.97;;
1054;SDS011;516;51.482;7.120;2023-02-28T19:17:10;23.60;;;21.77;;
1054;SDS011;516;51.482;7.120;2023-02-28T19:23:00;23.97;;;21.90;;
1054;SDS011;516;51.482;7.120;2023-02-28T19:28:48;25.23;;;23.03;;
1054;SDS011;516;51.482;7.120;2023-02-28T19:34:35;24.47;;;22.30;;
1054;SDS011;516;51.482;7.120;2023-02-28T19:40:23;23.93;;;22.13;;
1054;SDS011;516;51.482;7.120;2023-02-28T19:46:11;25.40;;;23.30;;
1054;SDS011;516;51.482;7.120;2023-02-28T19:51:59;25.37;;;22.97;;
1054;SDS011;516;51.482;7.120;2023-02-28T19:57:47;25.37;;;23.10;;
1054;SDS011;516;51.482;7.120;2023-02-28T20:03:34;23.13;;;21.00;;
1054;SDS011;516;51.482;7.120;2023-02-28T20:09:22;22.57;;;20.60;;
1054;SDS011;516;51.482;7.120;2023-02-28T20:25:05;21.70;;;19.60;;
1054;SDS011;516;51.482;7.120;2023-02-28T20:30:54;24.53;;;22.30;;
1054;SDS011;516;51.482;7.120;2023-02-28T20:36:42;22.70;;;20.63;;
1054;SDS011;516;51.482;7.120;2023-02-28T20:42:30;21.33;;;19.70;;
1054;SDS011;516;51.482;7.120;2023-02-28T20:48:18;22.07;;;19.97;;
1054;SDS011;516;51.482;7.120;2023-02-28T20:54:06;27.40;;;24.07;;
1054;SDS011;516;51.482;7.120;2023-02-28T20:59:55;24.23;;;21.63;;
1054;SDS011;516;51.482;7.120;2023-02-28T21:05:43;24.53;;;22.17;;
1054;SDS011;516;51.482;7.120;2023-02-28T21:11:32;23.40;;;21.10;;
1054;SDS011;516;51.482;7.120;2023-02-28T21:17:09;26.90;;;24.27;;
1054;SDS011;516;51.482;7.120;2023-02-28T21:22:57;26.37;;;24.00;;
1054;SDS011;516;51.482;7.120;2023-02-28T21:28:51;25.90;;;23.40;;
1054;SDS011;516;51.482;7.120;2023-02-28T21:34:41;26.27;;;23.57;;
1054;SDS011;516;51.482;7.120;2023-02-28T21:40:28;26.63;;;23.83;;
1054;SDS011;516;51.482;7.120;2023-02-28T21:46:18;26.83;;;23.97;;
1054;SDS011;516;51.482;7.120;2023-02-28T21:52:07;30.13;;;24.43;;
1054;SDS011;516;51.482;7.120;2023-02-28T21:57:36;24.00;;;21.70;;
1054;SDS011;516;51.482;7.120;2023-02-28T22:03:24;24.27;;;21.83;;
1054;SDS011;516;51.482;7.120;2023-02-28T22:09:13;24.23;;;21.90;;
1054;SDS011;516;51.482;7.120;2023-02-28T22:25:04;23.73;;;21.10;;
1054;SDS011;516;51.482;7.120;2023-02-28T22:30:52;25.27;;;22.57;;
1054;SDS011;516;51.482;7.120;2023-02-28T22:36:40;23.90;;;21.60;;
1054;SDS011;516;51.482;7.120;2023-02-28T22:42:31;24.20;;;22.00;;
1054;SDS011;516;51.482;7.120;2023-02-28T22:48:20;25.27;;;22.40;;
1054;SDS011;516;51.482;7.120;2023-02-28T22:54:08;23.47;;;21.03;;
1054;SDS011;516;51.482;7.120;2023-02-28T22:59:55;24.37;;;21.93;;
1054;SDS011;516;51.482;7.120;2023-02-28T23:05:43;25.40;;;20.67;;
1054;SDS011;516;51.482;7.120;2023-02-28T23:11:33;24.00;;;21.60;;
1054;SDS011;516;51.482;7.120;2023-02-28T23:17:10;23.67;;;21.17;;
1054;SDS011;516;51.482;7.120;2023-02-28T23:22:58;23.80;;;21.30;;
1054;SDS011;516;51.482;7.120;2023-02-28T23:28:46;23.53;;;20.77;;
1054;SDS011;516;51.482;7.120;2023-02-28T23:34:33;24.27;;;22.00;;
1054;SDS011;516;51.482;7.120;2023-02-28T23:40:21;26.50;;;23.57;;
1054;SDS011;516;51.482;7.120;2023-02-28T23:46:10;25.30;;;21.67;;
1054;SDS011;516;51.482;7.120;2023-02-28T23:51:58;28.00;;;22.30;;
1054;SDS011;516;51.482;7.120;2023-02-28T23:57:48;24.13;;;21.73;;
